sensor_id;sensor_type;location;lat;lon;timestamp;temperature;humidity
6520;DHT22;3293;51.690;5.982;2024-03-23T00:55:43;6.90;99.90
6520;DHT22;3293;51.690;5.982;2024-03-23T01:00:43;6.80;99.90
6520;DHT22;3293;51.690;5.982;2024-03-23T01:05:43;6.90;99.90
6520;DHT22;3293;51.690;5.982;2024-03-23T01:10:42;6.90;99.90
6520;DHT22;3293;51.690;5.982;2024-03-23T01:15:48;6.80;99.90
6520;DHT22;3293;51.690;5.982;2024-03-23T01:20:48;6.80;99.90
6520;DHT22;3293;51.690;5.982;2024-03-23T01:25:52;6.80;99.90
6520;DHT22;3293;51.690;5.982;2024-03-23T01:30:53;6.70;99.90
6520;DHT22;3293;51.690;5.982;2024-03-23T01:35:53;6.70;99.90
6520;DHT22;3293;51.690;5.982;2024-03-23T01:40:59;6.70;99.90
6520;DHT22;3293;51.690;5.982;2024-03-23T01:45:58;6.70;99.90
6520;DHT22;3293;51.690;5.982;2024-03-23T01:50:58;6.70;99.90
6520;DHT22;3293;51.690;5.982;2024-03-23T01:55:58;6.70;99.90
6520;DHT22;3293;51.690;5.982;2024-03-23T02:00:59;6.70;99.90
6520;DHT22;3293;51.690;5.982;2024-03-23T02:05:58;6.60;99.90
6520;DHT22;3293;51.690;5.982;2024-03-23T02:10:58;6.60;99.90
6520;DHT22;3293;51.690;5.982;2024-03-23T02:15:58;6.60;99.90
6520;DHT22;3293;51.690;5.982;2024-03-23T02:20:58;6.60;99.90
6520;DHT22;3293;51.690;5.982;2024-03-23T02:25:59;6.60;99.90
6520;DHT22;3293;51.690;5.982;2024-03-23T02:30:59;6.60;99.90
6520;DHT22;3293;51.690;5.982;2024-03-23T02:36:01;6.60;99.90
6520;DHT22;3293;51.690;5.982;2024-03-23T02:41:04;6.60;99.90
6520;DHT22;3293;51.690;5.982;2024-03-23T02:46:04;6.60;99.90
6520;DHT22;3293;51.690;5.982;2024-03-23T02:51:04;6.60;99.90
6520;DHT22;3293;51.690;5.982;2024-03-23T02:56:04;6.60;99.90
6520;DHT22;3293;51.690;5.982;2024-03-23T03:01:04;6.60;99.90
6520;DHT22;3293;51.690;5.982;2024-03-23T03:06:04;6.60;99.90
6520;DHT22;3293;51.690;5.982;2024-03-23T03:11:04;6.60;99.90
6520;DHT22;3293;51.690;5.982;2024-03-23T03:16:10;6.60;99.90
6520;DHT22;3293;51.690;5.982;2024-03-23T03:21:09;6.60;99.90
6520;DHT22;3293;51.690;5.982;2024-03-23T03:26:10;6.60;99.90
6520;DHT22;3293;51.690;5.982;2024-03-23T03:31:10;6.50;99.90
6520;DHT22;3293;51.690;5.982;2024-03-23T03:36:11;6.50;99.90
6520;DHT22;3293;51.690;5.982;2024-03-23T03:41:11;6.50;99.90
6520;DHT22;3293;51.690;5.982;2024-03-23T03:46:11;6.50;99.90
6520;DHT22;3293;51.690;5.982;2024-03-23T03:51:11;6.40;99.90
6520;DHT22;3293;51.690;5.982;2024-03-23T03:56:11;6.50;99.90
6520;DHT22;3293;51.690;5.982;2024-03-23T04:01:12;6.40;99.90
6520;DHT22;3293;51.690;5.982;2024-03-23T04:06:15;6.40;99.90
6520;DHT22;3293;51.690;5.982;2024-03-23T04:11:18;6.40;99.90
6520;DHT22;3293;51.690;5.982;2024-03-23T04:16:36;6.40;99.90
6520;DHT22;3293;51.690;5.982;2024-03-23T04:21:37;6.40;99.90
6520;DHT22;3293;51.690;5.982;2024-03-23T04:26:41;6.40;99.90
6520;DHT22;3293;51.690;5.982;2024-03-23T04:31:41;6.40;99.90
6520;DHT22;3293;51.690;5.982;2024-03-23T04:36:41;6.30;99.90
6520;DHT22;3293;51.690;5.982;2024-03-23T04:41:41;6.20;99.90
6520;DHT22;3293;51.690;5.982;2024-03-23T04:46:41;6.10;99.90
6520;DHT22;3293;51.690;5.982;2024-03-23T04:51:41;6.10;99.90
6520;DHT22;3293;51.690;5.982;2024-03-23T04:56:46;6.10;99.90
6520;DHT22;3293;51.690;5.982;2024-03-23T05:01:46;5.90;99.90
6520;DHT22;3293;51.690;5.982;2024-03-23T05:06:45;5.70;99.90
6520;DHT22;3293;51.690;5.982;2024-03-23T05:11:45;5.60;99.90
6520;DHT22;3293;51.690;5.982;2024-03-23T05:16:45;5.60;99.90
6520;DHT22;3293;51.690;5.982;2024-03-23T05:21:45;5.50;99.90
6520;DHT22;3293;51.690;5.982;2024-03-23T05:26:45;5.50;99.90
6520;DHT22;3293;51.690;5.982;2024-03-23T05:31:49;5.40;99.90
6520;DHT22;3293;51.690;5.982;2024-03-23T05:36:50;5.40;99.90
6520;DHT22;3293;51.690;5.982;2024-03-23T05:41:50;5.30;99.90
6520;DHT22;3293;51.690;5.982;2024-03-23T05:46:50;5.30;99.90
6520;DHT22;3293;51.690;5.982;2024-03-23T05:51:50;5.30;99.90
6520;DHT22;3293;51.690;5.982;2024-03-23T05:56:54;5.20;99.90
6520;DHT22;3293;51.690;5.982;2024-03-23T06:01:54;5.20;99.90
6520;DHT22;3293;51.690;5.982;2024-03-23T06:06:54;5.20;99.90
6520;DHT22;3293;51.690;5.982;2024-03-23T06:11:54;5.20;99.90
6520;DHT22;3293;51.690;5.982;2024-03-23T06:16:54;5.40;99.90
6520;DHT22;3293;51.690;5.982;2024-03-23T06:21:54;5.60;99.90
6520;DHT22;3293;51.690;5.982;2024-03-23T06:26:54;5.90;99.90
6520;DHT22;3293;51.690;5.982;2024-03-23T06:31:54;6.00;99.90
6520;DHT22;3293;51.690;5.982;2024-03-23T06:36:55;6.00;99.90
6520;DHT22;3293;51.690;5.982;2024-03-23T06:41:55;5.90;99.90
6520;DHT22;3293;51.690;5.982;2024-03-23T06:46:55;5.90;99.90
6520;DHT22;3293;51.690;5.982;2024-03-23T06:51:55;6.00;99.90
6520;DHT22;3293;51.690;5.982;2024-03-23T06:56:55;6.20;99.90
6520;DHT22;3293;51.690;5.982;2024-03-23T07:01:55;6.30;99.90
6520;DHT22;3293;51.690;5.982;2024-03-23T07:06:55;7.00;99.90
6520;DHT22;3293;51.690;5.982;2024-03-23T07:11:57;8.30;99.90
6520;DHT22;3293;51.690;5.982;2024-03-23T07:16:56;9.00;99.90
6520;DHT22;3293;51.690;5.982;2024-03-23T07:21:56;8.90;99.90
6520;DHT22;3293;51.690;5.982;2024-03-23T07:26:56;8.90;99.90
6520;DHT22;3293;51.690;5.982;2024-03-23T07:31:57;9.20;99.90
6520;DHT22;3293;51.690;5.982;2024-03-23T07:36:57;9.70;99.90
6520;DHT22;3293;51.690;5.982;2024-03-23T07:41:57;10.50;99.90
6520;DHT22;3293;51.690;5.982;2024-03-23T07:46:58;10.10;99.90
6520;DHT22;3293;51.690;5.982;2024-03-23T07:51:58;10.50;99.90
6520;DHT22;3293;51.690;5.982;2024-03-23T07:56:58;10.60;99.90
6520;DHT22;3293;51.690;5.982;2024-03-23T08:01:58;10.60;99.90
6520;DHT22;3293;51.690;5.982;2024-03-23T08:06:57;11.10;99.90
6520;DHT22;3293;51.690;5.982;2024-03-23T08:11:57;11.00;99.90
6520;DHT22;3293;51.690;5.982;2024-03-23T08:16:57;11.00;99.90
6520;DHT22;3293;51.690;5.982;2024-03-23T08:21:57;11.40;99.90
6520;DHT22;3293;51.690;5.982;2024-03-23T08:26:57;11.70;99.90
6520;DHT22;3293;51.690;5.982;2024-03-23T08:31:57;11.80;99.90
6520;DHT22;3293;51.690;5.982;2024-03-23T08:36:57;11.80;99.90
6520;DHT22;3293;51.690;5.982;2024-03-23T08:41:57;11.70;99.90
6520;DHT22;3293;51.690;5.982;2024-03-23T08:46:56;11.60;99.90
6520;DHT22;3293;51.690;5.982;2024-03-23T08:51:57;11.70;99.90
6520;DHT22;3293;51.690;5.982;2024-03-23T08:56:57;11.10;99.90
6520;DHT22;3293;51.690;5.982;2024-03-23T09:01:57;10.70;99.90
6520;DHT22;3293;51.690;5.982;2024-03-23T09:06:57;10.40;99.90
6520;DHT22;3293;51.690;5.982;2024-03-23T09:11:59;10.10;99.90
6520;DHT22;3293;51.690;5.982;2024-03-23T09:16:59;10.00;99.90
6520;DHT22;3293;51.690;5.982;2024-03-23T09:21:59;9.80;99.90
6520;DHT22;3293;51.690;5.982;2024-03-23T09:26:59;9.50;99.90
6520;DHT22;3293;51.690;5.982;2024-03-23T09:31:59;8.90;99.90
6520;DHT22;3293;51.690;5.982;2024-03-23T09:36:59;8.70;99.90
6520;DHT22;3293;51.690;5.982;2024-03-23T09:41:59;9.10;99.90
6520;DHT22;3293;51.690;5.982;2024-03-23T09:46:59;8.90;99.90
6520;DHT22;3293;51.690;5.982;2024-03-23T09:51:59;8.80;99.90
6520;DHT22;3293;51.690;5.982;2024-03-23T09:56:59;8.50;99.90
6520;DHT22;3293;51.690;5.982;2024-03-23T10:01:59;8.10;99.90
6520;DHT22;3293;51.690;5.982;2024-03-23T10:07:14;7.90;99.90
6520;DHT22;3293;51.690;5.982;2024-03-23T10:12:18;8.30;99.90
6520;DHT22;3293;51.690;5.982;2024-03-23T10:17:20;8.70;99.90
6520;DHT22;3293;51.690;5.982;2024-03-23T10:22:24;9.10;99.90
6520;DHT22;3293;51.690;5.982;2024-03-23T10:27:26;9.30;99.90
6520;DHT22;3293;51.690;5.982;2024-03-23T10:32:26;9.90;99.90
6520;DHT22;3293;51.690;5.982;2024-03-23T10:37:27;10.30;99.90
6520;DHT22;3293;51.690;5.982;2024-03-23T10:42:27;10.30;99.90
6520;DHT22;3293;51.690;5.982;2024-03-23T10:47:28;9.60;99.90
6520;DHT22;3293;51.690;5.982;2024-03-23T10:52:28;9.30;99.90
6520;DHT22;3293;51.690;5.982;2024-03-23T10:57:41;9.40;99.90
6520;DHT22;3293;51.690;5.982;2024-03-23T11:02:42;9.50;99.90
6520;DHT22;3293;51.690;5.982;2024-03-23T11:07:51;9.40;99.90
6520;DHT22;3293;51.690;5.982;2024-03-23T11:12:51;9.30;99.90
6520;DHT22;3293;51.690;5.982;2024-03-23T11:18:05;9.70;99.90
6520;DHT22;3293;51.690;5.982;2024-03-23T11:23:07;10.10;99.90
6520;DHT22;3293;51.690;5.982;2024-03-23T11:28:11;10.40;99.90
6520;DHT22;3293;51.690;5.982;2024-03-23T11:33:14;10.60;99.90
6520;DHT22;3293;51.690;5.982;2024-03-23T11:38:16;10.80;99.90
6520;DHT22;3293;51.690;5.982;2024-03-23T11:43:21;10.80;99.90
6520;DHT22;3293;51.690;5.982;2024-03-23T11:48:22;10.70;99.90
6520;DHT22;3293;51.690;5.982;2024-03-23T11:53:24;10.90;99.90
6520;DHT22;3293;51.690;5.982;2024-03-23T11:58:26;10.60;99.90
6520;DHT22;3293;51.690;5.982;2024-03-23T12:03:26;9.90;99.90
6520;DHT22;3293;51.690;5.982;2024-03-23T12:08:31;9.60;99.90
6520;DHT22;3293;51.690;5.982;2024-03-23T12:13:32;9.60;99.90
6520;DHT22;3293;51.690;5.982;2024-03-23T12:18:32;9.40;99.90
6520;DHT22;3293;51.690;5.982;2024-03-23T12:23:32;9.60;99.90
6520;DHT22;3293;51.690;5.982;2024-03-23T12:28:33;9.90;99.90
6520;DHT22;3293;51.690;5.982;2024-03-23T12:33:32;9.90;99.90
6520;DHT22;3293;51.690;5.982;2024-03-23T12:38:32;9.70;99.90
6520;DHT22;3293;51.690;5.982;2024-03-23T12:43:32;9.30;99.90
6520;DHT22;3293;51.690;5.982;2024-03-23T12:48:32;9.00;99.90
6520;DHT22;3293;51.690;5.982;2024-03-23T12:53:32;9.20;99.90
6520;DHT22;3293;51.690;5.982;2024-03-23T12:58:32;9.30;99.90
6520;DHT22;3293;51.690;5.982;2024-03-23T13:03:32;9.40;99.90
6520;DHT22;3293;51.690;5.982;2024-03-23T13:08:32;9.30;99.90
6520;DHT22;3293;51.690;5.982;2024-03-23T13:13:32;9.10;99.90
6520;DHT22;3293;51.690;5.982;2024-03-23T13:18:33;8.50;99.90
6520;DHT22;3293;51.690;5.982;2024-03-23T13:23:33;8.40;99.90
6520;DHT22;3293;51.690;5.982;2024-03-23T13:28:35;8.80;99.90
6520;DHT22;3293;51.690;5.982;2024-03-23T13:33:35;8.80;99.90
6520;DHT22;3293;51.690;5.982;2024-03-23T13:38:35;8.90;99.90
6520;DHT22;3293;51.690;5.982;2024-03-23T13:43:35;9.30;99.90
6520;DHT22;3293;51.690;5.982;2024-03-23T13:48:35;9.40;99.90
6520;DHT22;3293;51.690;5.982;2024-03-23T13:53:35;8.90;99.90
6520;DHT22;3293;51.690;5.982;2024-03-23T13:58:35;8.80;99.90
6520;DHT22;3293;51.690;5.982;2024-03-23T14:03:35;9.10;99.90
6520;DHT22;3293;51.690;5.982;2024-03-23T14:08:35;9.50;99.90
6520;DHT22;3293;51.690;5.982;2024-03-23T14:13:36;9.50;99.90
6520;DHT22;3293;51.690;5.982;2024-03-23T14:18:36;9.40;99.90
6520;DHT22;3293;51.690;5.982;2024-03-23T14:23:36;9.20;99.90
6520;DHT22;3293;51.690;5.982;2024-03-23T14:28:36;8.90;99.90
6520;DHT22;3293;51.690;5.982;2024-03-23T14:33:37;8.50;99.90
6520;DHT22;3293;51.690;5.982;2024-03-23T14:38:37;8.30;99.90
6520;DHT22;3293;51.690;5.982;2024-03-23T14:43:37;8.70;99.90
6520;DHT22;3293;51.690;5.982;2024-03-23T14:48:38;8.90;99.90
6520;DHT22;3293;51.690;5.982;2024-03-23T14:53:45;9.00;99.90
6520;DHT22;3293;51.690;5.982;2024-03-23T14:58:45;8.90;99.90
6520;DHT22;3293;51.690;5.982;2024-03-23T15:03:45;8.90;99.90
6520;DHT22;3293;51.690;5.982;2024-03-23T15:08:46;8.90;99.90
6520;DHT22;3293;51.690;5.982;2024-03-23T15:13:49;8.80;99.90
6520;DHT22;3293;51.690;5.982;2024-03-23T15:18:49;8.60;99.90
6520;DHT22;3293;51.690;5.982;2024-03-23T15:23:49;8.50;99.90
6520;DHT22;3293;51.690;5.982;2024-03-23T15:28:49;8.50;99.90
6520;DHT22;3293;51.690;5.982;2024-03-23T15:33:58;8.50;99.90
6520;DHT22;3293;51.690;5.982;2024-03-23T15:38:58;8.40;99.90
6520;DHT22;3293;51.690;5.982;2024-03-23T15:43:58;8.40;99.90
6520;DHT22;3293;51.690;5.982;2024-03-23T15:48:58;8.30;99.90
6520;DHT22;3293;51.690;5.982;2024-03-23T15:53:59;8.20;99.90
6520;DHT22;3293;51.690;5.982;2024-03-23T15:58:59;8.20;99.90
6520;DHT22;3293;51.690;5.982;2024-03-23T16:04:05;8.10;99.90
6520;DHT22;3293;51.690;5.982;2024-03-23T16:09:05;7.80;99.90
6520;DHT22;3293;51.690;5.982;2024-03-23T16:14:05;7.60;99.90
6520;DHT22;3293;51.690;5.982;2024-03-23T16:19:05;7.40;99.90
6520;DHT22;3293;51.690;5.982;2024-03-23T16:24:05;7.30;99.90
6520;DHT22;3293;51.690;5.982;2024-03-23T16:29:07;7.20;99.90
6520;DHT22;3293;51.690;5.982;2024-03-23T16:34:09;7.20;99.90
6520;DHT22;3293;51.690;5.982;2024-03-23T16:39:09;7.10;99.90
6520;DHT22;3293;51.690;5.982;2024-03-23T16:44:09;7.10;99.90
6520;DHT22;3293;51.690;5.982;2024-03-23T16:49:10;7.10;99.90
6520;DHT22;3293;51.690;5.982;2024-03-23T16:54:11;7.00;99.90
6520;DHT22;3293;51.690;5.982;2024-03-23T16:59:11;6.90;99.90
6520;DHT22;3293;51.690;5.982;2024-03-23T17:04:11;6.80;99.90
6520;DHT22;3293;51.690;5.982;2024-03-23T17:09:11;6.60;99.90
6520;DHT22;3293;51.690;5.982;2024-03-23T17:14:12;6.50;99.90
6520;DHT22;3293;51.690;5.982;2024-03-23T17:19:16;6.30;99.90
6520;DHT22;3293;51.690;5.982;2024-03-23T17:24:15;6.30;99.90
6520;DHT22;3293;51.690;5.982;2024-03-23T17:29:15;6.20;99.90
6520;DHT22;3293;51.690;5.982;2024-03-23T17:34:15;6.00;99.90
6520;DHT22;3293;51.690;5.982;2024-03-23T17:39:15;5.90;99.90
6520;DHT22;3293;51.690;5.982;2024-03-23T17:44:15;5.70;99.90
6520;DHT22;3293;51.690;5.982;2024-03-23T17:49:15;5.60;99.90
6520;DHT22;3293;51.690;5.982;2024-03-23T17:54:15;5.50;99.90
6520;DHT22;3293;51.690;5.982;2024-03-23T17:59:22;5.50;99.90
6520;DHT22;3293;51.690;5.982;2024-03-23T18:04:22;5.50;99.90
6520;DHT22;3293;51.690;5.982;2024-03-23T18:09:22;5.40;99.90
6520;DHT22;3293;51.690;5.982;2024-03-23T18:14:22;5.40;99.90
6520;DHT22;3293;51.690;5.982;2024-03-23T18:19:23;5.40;99.90
6520;DHT22;3293;51.690;5.982;2024-03-23T18:24:23;5.50;99.90
6520;DHT22;3293;51.690;5.982;2024-03-23T18:29:24;5.70;99.90
6520;DHT22;3293;51.690;5.982;2024-03-23T18:34:24;5.70;99.90
6520;DHT22;3293;51.690;5.982;2024-03-23T18:39:24;5.70;99.90
6520;DHT22;3293;51.690;5.982;2024-03-23T18:44:24;5.60;99.90
6520;DHT22;3293;51.690;5.982;2024-03-23T18:49:23;5.50;99.90
6520;DHT22;3293;51.690;5.982;2024-03-23T18:54:23;5.30;99.90
6520;DHT22;3293;51.690;5.982;2024-03-23T18:59:24;5.10;99.90
6520;DHT22;3293;51.690;5.982;2024-03-23T19:04:25;5.10;99.90
6520;DHT22;3293;51.690;5.982;2024-03-23T19:09:25;5.30;99.90
6520;DHT22;3293;51.690;5.982;2024-03-23T19:14:25;5.40;99.90
6520;DHT22;3293;51.690;5.982;2024-03-23T19:19:26;5.30;99.90
6520;DHT22;3293;51.690;5.982;2024-03-23T19:24:27;5.20;99.90
6520;DHT22;3293;51.690;5.982;2024-03-23T19:29:27;5.10;99.90
6520;DHT22;3293;51.690;5.982;2024-03-23T19:34:27;5.10;99.90
6520;DHT22;3293;51.690;5.982;2024-03-23T19:39:28;5.10;99.90
6520;DHT22;3293;51.690;5.982;2024-03-23T19:44:28;5.10;99.90
6520;DHT22;3293;51.690;5.982;2024-03-23T19:49:28;5.00;99.90
6520;DHT22;3293;51.690;5.982;2024-03-23T19:54:28;4.90;99.90
6520;DHT22;3293;51.690;5.982;2024-03-23T19:59:28;4.90;99.90
6520;DHT22;3293;51.690;5.982;2024-03-23T20:04:28;4.90;99.90
6520;DHT22;3293;51.690;5.982;2024-03-23T20:09:27;4.90;99.90
6520;DHT22;3293;51.690;5.982;2024-03-23T20:14:28;4.90;99.90
6520;DHT22;3293;51.690;5.982;2024-03-23T20:19:29;4.80;99.90
6520;DHT22;3293;51.690;5.982;2024-03-23T20:24:29;4.80;99.90
6520;DHT22;3293;51.690;5.982;2024-03-23T20:29:30;4.70;99.90
6520;DHT22;3293;51.690;5.982;2024-03-23T20:34:30;4.60;99.90
6520;DHT22;3293;51.690;5.982;2024-03-23T20:39:29;4.60;99.90
6520;DHT22;3293;51.690;5.982;2024-03-23T20:44:30;4.50;99.90
6520;DHT22;3293;51.690;5.982;2024-03-23T20:49:30;4.50;99.90
6520;DHT22;3293;51.690;5.982;2024-03-23T20:54:31;4.50;99.90
6520;DHT22;3293;51.690;5.982;2024-03-23T20:59:31;4.40;99.90
6520;DHT22;3293;51.690;5.982;2024-03-23T21:04:31;4.40;99.90
6520;DHT22;3293;51.690;5.982;2024-03-23T21:09:32;4.40;99.90
6520;DHT22;3293;51.690;5.982;2024-03-23T21:14:32;4.50;99.90
6520;DHT22;3293;51.690;5.982;2024-03-23T21:19:32;4.50;99.90
6520;DHT22;3293;51.690;5.982;2024-03-23T21:24:35;4.50;99.90
6520;DHT22;3293;51.690;5.982;2024-03-23T21:29:35;4.40;99.90
6520;DHT22;3293;51.690;5.982;2024-03-23T21:34:35;4.30;99.90
6520;DHT22;3293;51.690;5.982;2024-03-23T21:39:35;4.20;99.90
6520;DHT22;3293;51.690;5.982;2024-03-23T21:44:35;4.10;99.90
6520;DHT22;3293;51.690;5.982;2024-03-23T21:49:35;4.10;99.90
6520;DHT22;3293;51.690;5.982;2024-03-23T21:54:35;4.10;99.90
6520;DHT22;3293;51.690;5.982;2024-03-23T21:59:35;4.10;99.90
6520;DHT22;3293;51.690;5.982;2024-03-23T22:04:37;4.20;99.90
6520;DHT22;3293;51.690;5.982;2024-03-23T22:09:37;4.20;99.90
6520;DHT22;3293;51.690;5.982;2024-03-23T22:14:37;4.20;99.90
6520;DHT22;3293;51.690;5.982;2024-03-23T22:19:37;4.10;99.90
6520;DHT22;3293;51.690;5.982;2024-03-23T22:24:37;4.10;99.90
6520;DHT22;3293;51.690;5.982;2024-03-23T22:29:37;4.10;99.90
6520;DHT22;3293;51.690;5.982;2024-03-23T22:34:37;4.10;99.90
6520;DHT22;3293;51.690;5.982;2024-03-23T22:39:40;4.10;99.90
6520;DHT22;3293;51.690;5.982;2024-03-23T22:44:41;4.10;99.90
6520;DHT22;3293;51.690;5.982;2024-03-23T22:49:41;4.10;99.90
6520;DHT22;3293;51.690;5.982;2024-03-23T22:54:41;4.10;99.90
6520;DHT22;3293;51.690;5.982;2024-03-23T22:59:41;4.20;99.90
6520;DHT22;3293;51.690;5.982;2024-03-23T23:04:41;4.20;99.90
6520;DHT22;3293;51.690;5.982;2024-03-23T23:09:40;4.10;99.90
6520;DHT22;3293;51.690;5.982;2024-03-23T23:14:41;4.10;99.90
6520;DHT22;3293;51.690;5.982;2024-03-23T23:19:40;4.20;99.90
6520;DHT22;3293;51.690;5.982;2024-03-23T23:24:40;4.20;99.90
6520;DHT22;3293;51.690;5.982;2024-03-23T23:29:40;4.20;99.90
6520;DHT22;3293;51.690;5.982;2024-03-23T23:34:40;4.20;99.90
6520;DHT22;3293;51.690;5.982;2024-03-23T23:39:40;4.30;99.90
6520;DHT22;3293;51.690;5.982;2024-03-23T23:44:40;4.20;99.90
6520;DHT22;3293;51.690;5.982;2024-03-23T23:49:40;4.20;99.90
6520;DHT22;3293;51.690;5.982;2024-03-23T23:54:40;4.30;99.90
6520;DHT22;3293;51.690;5.982;2024-03-23T23:59:40;4.40;99.90
